Weather at Camp Al Hamra Heliport

Public forecast

Using degrees Celsius for public forecast. Weather courtesy of forecast.io.

Closest aviation weather report (METAR) to Camp Al Hamra Heliport

Closest report is Hamad International Airport, 86.4 nm (160.0 km) NNW.

2024/05/29 10:00 (retrieved 53 minutes ago)

OTHH 291000Z 01011KT CAVOK 37/20 Q1001 NOSIG

Closest aviation forecast (TAF) to Camp Al Hamra Heliport

Closest forecast is Hamad International Airport, 86.4 nm (160.0 km) NNW.

2024/05/29 06:00 (retrieved 5 hours ago)

TAF OTHH 290505Z 2906/3012 35015KT 8000 NSC TEMPO 2906/2917 35015G25KT TEMPO 2908/2922 28010KT